sensor_id;sensor_type;location;lat;lon;timestamp;pressure;altitude;pressure_sealevel;temperature
35582;BMP180;21687;48.900;9.188;2022-12-18T00:02:04;99479.00;;;-11.20
35582;BMP180;21687;48.900;9.188;2022-12-18T00:04:30;99491.00;;;-11.30
35582;BMP180;21687;48.900;9.188;2022-12-18T00:06:57;99478.00;;;-11.40
35582;BMP180;21687;48.900;9.188;2022-12-18T00:09:23;99481.00;;;-11.20
35582;BMP180;21687;48.900;9.188;2022-12-18T00:11:49;99482.00;;;-11.20
35582;BMP180;21687;48.900;9.188;2022-12-18T00:14:16;99488.00;;;-11.20
35582;BMP180;21687;48.900;9.188;2022-12-18T00:16:44;99486.00;;;-11.20
35582;BMP180;21687;48.900;9.188;2022-12-18T00:19:12;99471.00;;;-11.30
35582;BMP180;21687;48.900;9.188;2022-12-18T00:21:39;99478.00;;;-11.20
35582;BMP180;21687;48.900;9.188;2022-12-18T00:24:05;99483.00;;;-11.30
35582;BMP180;21687;48.900;9.188;2022-12-18T00:26:34;99490.00;;;-11.40
35582;BMP180;21687;48.900;9.188;2022-12-18T00:29:06;99494.00;;;-11.40
35582;BMP180;21687;48.900;9.188;2022-12-18T00:31:34;99485.00;;;-11.40
35582;BMP180;21687;48.900;9.188;2022-12-18T00:34:00;99487.00;;;-11.50
35582;BMP180;21687;48.900;9.188;2022-12-18T00:36:29;99489.00;;;-11.50
35582;BMP180;21687;48.900;9.188;2022-12-18T00:38:57;99489.00;;;-11.60
35582;BMP180;21687;48.900;9.188;2022-12-18T00:41:25;99492.00;;;-11.60
35582;BMP180;21687;48.900;9.188;2022-12-18T00:44:12;99489.00;;;-11.50
35582;BMP180;21687;48.900;9.188;2022-12-18T00:46:38;99489.00;;;-11.50
35582;BMP180;21687;48.900;9.188;2022-12-18T00:49:05;99490.00;;;-11.40
35582;BMP180;21687;48.900;9.188;2022-12-18T00:51:31;99491.00;;;-11.40
35582;BMP180;21687;48.900;9.188;2022-12-18T00:53:58;99482.00;;;-11.10
35582;BMP180;21687;48.900;9.188;2022-12-18T00:56:24;99479.00;;;-11.10
35582;BMP180;21687;48.900;9.188;2022-12-18T00:58:51;99482.00;;;-10.80
35582;BMP180;21687;48.900;9.188;2022-12-18T01:01:17;99480.00;;;-10.60
35582;BMP180;21687;48.900;9.188;2022-12-18T01:03:44;99483.00;;;-10.50
35582;BMP180;21687;48.900;9.188;2022-12-18T01:06:13;99477.00;;;-10.40
35582;BMP180;21687;48.900;9.188;2022-12-18T01:08:40;99494.00;;;-10.40
35582;BMP180;21687;48.900;9.188;2022-12-18T01:11:11;99478.00;;;-10.30
35582;BMP180;21687;48.900;9.188;2022-12-18T01:13:38;99483.00;;;-10.20
35582;BMP180;21687;48.900;9.188;2022-12-18T01:16:05;99492.00;;;-10.10
35582;BMP180;21687;48.900;9.188;2022-12-18T01:18:31;99513.00;;;-10.00
35582;BMP180;21687;48.900;9.188;2022-12-18T01:20:58;99504.00;;;-10.10
35582;BMP180;21687;48.900;9.188;2022-12-18T01:23:24;99498.00;;;-10.00
35582;BMP180;21687;48.900;9.188;2022-12-18T01:25:51;99503.00;;;-9.90
35582;BMP180;21687;48.900;9.188;2022-12-18T01:28:17;99496.00;;;-9.90
35582;BMP180;21687;48.900;9.188;2022-12-18T01:30:43;99506.00;;;-9.80
35582;BMP180;21687;48.900;9.188;2022-12-18T01:33:09;99499.00;;;-9.80
35582;BMP180;21687;48.900;9.188;2022-12-18T01:35:41;99499.00;;;-9.90
35582;BMP180;21687;48.900;9.188;2022-12-18T01:38:08;99502.00;;;-9.90
35582;BMP180;21687;48.900;9.188;2022-12-18T01:40:34;99502.00;;;-9.90
35582;BMP180;21687;48.900;9.188;2022-12-18T01:43:00;99502.00;;;-10.00
35582;BMP180;21687;48.900;9.188;2022-12-18T01:45:29;99507.00;;;-10.10
35582;BMP180;21687;48.900;9.188;2022-12-18T01:47:59;99518.00;;;-10.00
35582;BMP180;21687;48.900;9.188;2022-12-18T01:50:36;99517.00;;;-10.10
35582;BMP180;21687;48.900;9.188;2022-12-18T01:53:21;99512.00;;;-10.10
35582;BMP180;21687;48.900;9.188;2022-12-18T01:55:54;99500.00;;;-10.10
35582;BMP180;21687;48.900;9.188;2022-12-18T01:58:32;99482.00;;;-10.00
35582;BMP180;21687;48.900;9.188;2022-12-18T02:01:00;99485.00;;;-10.10
35582;BMP180;21687;48.900;9.188;2022-12-18T02:03:27;99491.00;;;-10.00
35582;BMP180;21687;48.900;9.188;2022-12-18T02:08:35;99493.00;;;-10.00
35582;BMP180;21687;48.900;9.188;2022-12-18T02:11:32;99497.00;;;-9.90
35582;BMP180;21687;48.900;9.188;2022-12-18T02:16:39;99485.00;;;-10.10
35582;BMP180;21687;48.900;9.188;2022-12-18T02:22:26;99512.00;;;-10.10
35582;BMP180;21687;48.900;9.188;2022-12-18T02:26:01;99512.00;;;-10.00
35582;BMP180;21687;48.900;9.188;2022-12-18T02:27:55;99511.00;;;-10.00
35582;BMP180;21687;48.900;9.188;2022-12-18T02:30:25;99508.00;;;-10.00
35582;BMP180;21687;48.900;9.188;2022-12-18T02:32:54;99508.00;;;-10.00
35582;BMP180;21687;48.900;9.188;2022-12-18T02:35:25;99500.00;;;-10.00
35582;BMP180;21687;48.900;9.188;2022-12-18T02:37:53;99505.00;;;-10.10
35582;BMP180;21687;48.900;9.188;2022-12-18T02:40:21;99515.00;;;-10.10
35582;BMP180;21687;48.900;9.188;2022-12-18T02:42:48;99526.00;;;-10.10
35582;BMP180;21687;48.900;9.188;2022-12-18T02:45:14;99516.00;;;-10.20
35582;BMP180;21687;48.900;9.188;2022-12-18T02:47:43;99520.00;;;-10.20
35582;BMP180;21687;48.900;9.188;2022-12-18T02:50:34;99507.00;;;-10.30
35582;BMP180;21687;48.900;9.188;2022-12-18T02:53:17;99529.00;;;-10.30
35582;BMP180;21687;48.900;9.188;2022-12-18T03:03:57;99536.00;;;-10.20
35582;BMP180;21687;48.900;9.188;2022-12-18T03:07:09;99525.00;;;-10.00
35582;BMP180;21687;48.900;9.188;2022-12-18T03:09:36;99531.00;;;-10.10
35582;BMP180;21687;48.900;9.188;2022-12-18T03:12:28;99529.00;;;-9.90
35582;BMP180;21687;48.900;9.188;2022-12-18T03:15:13;99522.00;;;-10.00
35582;BMP180;21687;48.900;9.188;2022-12-18T03:17:43;99528.00;;;-10.10
35582;BMP180;21687;48.900;9.188;2022-12-18T03:20:17;99542.00;;;-10.00
35582;BMP180;21687;48.900;9.188;2022-12-18T03:22:47;99541.00;;;-10.00
35582;BMP180;21687;48.900;9.188;2022-12-18T03:25:17;99526.00;;;-9.80
35582;BMP180;21687;48.900;9.188;2022-12-18T03:27:47;99532.00;;;-9.80
35582;BMP180;21687;48.900;9.188;2022-12-18T03:30:16;99541.00;;;-9.80
35582;BMP180;21687;48.900;9.188;2022-12-18T03:32:50;99535.00;;;-9.90
35582;BMP180;21687;48.900;9.188;2022-12-18T03:35:22;99539.00;;;-9.80
35582;BMP180;21687;48.900;9.188;2022-12-18T03:37:50;99533.00;;;-9.70
35582;BMP180;21687;48.900;9.188;2022-12-18T03:40:16;99539.00;;;-9.80
35582;BMP180;21687;48.900;9.188;2022-12-18T03:42:51;99526.00;;;-9.70
35582;BMP180;21687;48.900;9.188;2022-12-18T03:45:38;99527.00;;;-9.50
35582;BMP180;21687;48.900;9.188;2022-12-18T03:48:33;99530.00;;;-9.50
35582;BMP180;21687;48.900;9.188;2022-12-18T03:51:07;99542.00;;;-9.50
35582;BMP180;21687;48.900;9.188;2022-12-18T03:54:00;99524.00;;;-9.50
35582;BMP180;21687;48.900;9.188;2022-12-18T03:56:32;99547.00;;;-9.30
35582;BMP180;21687;48.900;9.188;2022-12-18T03:59:00;99528.00;;;-9.40
35582;BMP180;21687;48.900;9.188;2022-12-18T04:01:35;99531.00;;;-9.40
35582;BMP180;21687;48.900;9.188;2022-12-18T04:04:04;99533.00;;;-9.30
35582;BMP180;21687;48.900;9.188;2022-12-18T04:06:31;99524.00;;;-9.30
35582;BMP180;21687;48.900;9.188;2022-12-18T04:08:58;99527.00;;;-9.30
35582;BMP180;21687;48.900;9.188;2022-12-18T04:11:25;99523.00;;;-9.40
35582;BMP180;21687;48.900;9.188;2022-12-18T04:13:56;99536.00;;;-9.50
35582;BMP180;21687;48.900;9.188;2022-12-18T04:16:24;99536.00;;;-9.50
35582;BMP180;21687;48.900;9.188;2022-12-18T04:18:50;99526.00;;;-9.50
35582;BMP180;21687;48.900;9.188;2022-12-18T04:21:17;99524.00;;;-9.50
35582;BMP180;21687;48.900;9.188;2022-12-18T04:23:43;99537.00;;;-9.60
35582;BMP180;21687;48.900;9.188;2022-12-18T04:26:09;99527.00;;;-9.60
35582;BMP180;21687;48.900;9.188;2022-12-18T04:28:36;99534.00;;;-9.50
35582;BMP180;21687;48.900;9.188;2022-12-18T04:31:02;99529.00;;;-9.70
35582;BMP180;21687;48.900;9.188;2022-12-18T04:33:28;99534.00;;;-9.70
35582;BMP180;21687;48.900;9.188;2022-12-18T04:35:55;99533.00;;;-9.60
35582;BMP180;21687;48.900;9.188;2022-12-18T04:38:21;99536.00;;;-9.70
35582;BMP180;21687;48.900;9.188;2022-12-18T04:40:47;99538.00;;;-9.70
35582;BMP180;21687;48.900;9.188;2022-12-18T04:43:13;99526.00;;;-9.60
35582;BMP180;21687;48.900;9.188;2022-12-18T04:45:40;99524.00;;;-9.60
35582;BMP180;21687;48.900;9.188;2022-12-18T04:48:06;99529.00;;;-9.60
35582;BMP180;21687;48.900;9.188;2022-12-18T04:50:32;99524.00;;;-9.70
35582;BMP180;21687;48.900;9.188;2022-12-18T04:52:59;99536.00;;;-9.70
35582;BMP180;21687;48.900;9.188;2022-12-18T04:55:25;99530.00;;;-9.80
35582;BMP180;21687;48.900;9.188;2022-12-18T04:57:52;99528.00;;;-9.80
35582;BMP180;21687;48.900;9.188;2022-12-18T05:00:18;99518.00;;;-9.90
35582;BMP180;21687;48.900;9.188;2022-12-18T05:02:44;99521.00;;;-9.80
35582;BMP180;21687;48.900;9.188;2022-12-18T05:05:11;99525.00;;;-9.90
35582;BMP180;21687;48.900;9.188;2022-12-18T05:07:37;99533.00;;;-10.00
35582;BMP180;21687;48.900;9.188;2022-12-18T05:10:06;99530.00;;;-10.20
35582;BMP180;21687;48.900;9.188;2022-12-18T05:12:33;99527.00;;;-10.30
35582;BMP180;21687;48.900;9.188;2022-12-18T05:14:59;99521.00;;;-10.30
35582;BMP180;21687;48.900;9.188;2022-12-18T05:17:25;99521.00;;;-10.30
35582;BMP180;21687;48.900;9.188;2022-12-18T05:19:52;99523.00;;;-10.60
35582;BMP180;21687;48.900;9.188;2022-12-18T05:22:18;99531.00;;;-10.60
35582;BMP180;21687;48.900;9.188;2022-12-18T05:24:44;99535.00;;;-10.70
35582;BMP180;21687;48.900;9.188;2022-12-18T05:27:10;99538.00;;;-10.80
35582;BMP180;21687;48.900;9.188;2022-12-18T05:29:37;99540.00;;;-11.00
35582;BMP180;21687;48.900;9.188;2022-12-18T05:32:03;99546.00;;;-11.10
35582;BMP180;21687;48.900;9.188;2022-12-18T05:34:30;99548.00;;;-11.20
35582;BMP180;21687;48.900;9.188;2022-12-18T05:36:56;99544.00;;;-11.20
35582;BMP180;21687;48.900;9.188;2022-12-18T05:39:22;99550.00;;;-11.30
35582;BMP180;21687;48.900;9.188;2022-12-18T05:41:48;99573.00;;;-11.20
35582;BMP180;21687;48.900;9.188;2022-12-18T05:44:14;99571.00;;;-11.20
35582;BMP180;21687;48.900;9.188;2022-12-18T05:46:42;99565.00;;;-11.10
35582;BMP180;21687;48.900;9.188;2022-12-18T05:49:08;99551.00;;;-10.90
35582;BMP180;21687;48.900;9.188;2022-12-18T05:51:35;99551.00;;;-10.90
35582;BMP180;21687;48.900;9.188;2022-12-18T05:54:01;99540.00;;;-10.70
35582;BMP180;21687;48.900;9.188;2022-12-18T05:56:27;99544.00;;;-10.70
35582;BMP180;21687;48.900;9.188;2022-12-18T05:58:54;99550.00;;;-10.80
35582;BMP180;21687;48.900;9.188;2022-12-18T06:01:23;99552.00;;;-10.90
35582;BMP180;21687;48.900;9.188;2022-12-18T06:03:50;99541.00;;;-10.90
35582;BMP180;21687;48.900;9.188;2022-12-18T06:06:22;99551.00;;;-11.10
35582;BMP180;21687;48.900;9.188;2022-12-18T06:08:50;99552.00;;;-11.10
35582;BMP180;21687;48.900;9.188;2022-12-18T06:11:18;99564.00;;;-11.10
35582;BMP180;21687;48.900;9.188;2022-12-18T06:13:45;99549.00;;;-11.20
35582;BMP180;21687;48.900;9.188;2022-12-18T06:16:12;99560.00;;;-11.10
35582;BMP180;21687;48.900;9.188;2022-12-18T06:18:38;99554.00;;;-11.00
35582;BMP180;21687;48.900;9.188;2022-12-18T06:21:05;99552.00;;;-11.00
35582;BMP180;21687;48.900;9.188;2022-12-18T06:23:31;99543.00;;;-11.00
35582;BMP180;21687;48.900;9.188;2022-12-18T06:25:58;99544.00;;;-11.00
35582;BMP180;21687;48.900;9.188;2022-12-18T06:28:24;99568.00;;;-11.00
35582;BMP180;21687;48.900;9.188;2022-12-18T06:30:50;99562.00;;;-11.10
35582;BMP180;21687;48.900;9.188;2022-12-18T06:33:17;99549.00;;;-11.10
35582;BMP180;21687;48.900;9.188;2022-12-18T06:35:43;99573.00;;;-11.10
35582;BMP180;21687;48.900;9.188;2022-12-18T06:38:09;99567.00;;;-11.20
35582;BMP180;21687;48.900;9.188;2022-12-18T06:40:37;99572.00;;;-11.20
35582;BMP180;21687;48.900;9.188;2022-12-18T06:43:05;99586.00;;;-11.10
35582;BMP180;21687;48.900;9.188;2022-12-18T06:45:31;99569.00;;;-11.10
35582;BMP180;21687;48.900;9.188;2022-12-18T06:47:57;99572.00;;;-11.10
35582;BMP180;21687;48.900;9.188;2022-12-18T06:50:23;99580.00;;;-11.00
35582;BMP180;21687;48.900;9.188;2022-12-18T06:52:50;99561.00;;;-10.90
35582;BMP180;21687;48.900;9.188;2022-12-18T06:55:16;99570.00;;;-10.90
35582;BMP180;21687;48.900;9.188;2022-12-18T06:57:44;99578.00;;;-10.80
35582;BMP180;21687;48.900;9.188;2022-12-18T07:00:10;99574.00;;;-10.80
35582;BMP180;21687;48.900;9.188;2022-12-18T07:02:37;99579.00;;;-10.70
35582;BMP180;21687;48.900;9.188;2022-12-18T07:05:04;99574.00;;;-10.80
35582;BMP180;21687;48.900;9.188;2022-12-18T07:07:31;99586.00;;;-10.80
35582;BMP180;21687;48.900;9.188;2022-12-18T07:09:59;99591.00;;;-10.80
35582;BMP180;21687;48.900;9.188;2022-12-18T07:12:27;99589.00;;;-10.70
35582;BMP180;21687;48.900;9.188;2022-12-18T07:14:53;99599.00;;;-10.40
35582;BMP180;21687;48.900;9.188;2022-12-18T07:17:20;99589.00;;;-10.50
35582;BMP180;21687;48.900;9.188;2022-12-18T07:19:46;99592.00;;;-10.50
35582;BMP180;21687;48.900;9.188;2022-12-18T07:22:13;99604.00;;;-10.60
35582;BMP180;21687;48.900;9.188;2022-12-18T07:24:39;99598.00;;;-10.50
35582;BMP180;21687;48.900;9.188;2022-12-18T07:27:06;99608.00;;;-10.60
35582;BMP180;21687;48.900;9.188;2022-12-18T07:29:32;99619.00;;;-10.60
35582;BMP180;21687;48.900;9.188;2022-12-18T07:31:58;99616.00;;;-10.70
35582;BMP180;21687;48.900;9.188;2022-12-18T07:34:25;99625.00;;;-10.60
35582;BMP180;21687;48.900;9.188;2022-12-18T07:36:51;99635.00;;;-10.60
35582;BMP180;21687;48.900;9.188;2022-12-18T07:39:17;99624.00;;;-10.50
35582;BMP180;21687;48.900;9.188;2022-12-18T07:41:43;99621.00;;;-10.50
35582;BMP180;21687;48.900;9.188;2022-12-18T07:44:29;99633.00;;;-10.50
35582;BMP180;21687;48.900;9.188;2022-12-18T07:46:56;99625.00;;;-10.60
35582;BMP180;21687;48.900;9.188;2022-12-18T07:49:22;99628.00;;;-10.70
35582;BMP180;21687;48.900;9.188;2022-12-18T07:51:48;99620.00;;;-10.70
35582;BMP180;21687;48.900;9.188;2022-12-18T07:54:15;99626.00;;;-10.90
35582;BMP180;21687;48.900;9.188;2022-12-18T07:56:41;99628.00;;;-11.00
35582;BMP180;21687;48.900;9.188;2022-12-18T07:59:07;99630.00;;;-11.10
35582;BMP180;21687;48.900;9.188;2022-12-18T08:01:34;99623.00;;;-11.30
35582;BMP180;21687;48.900;9.188;2022-12-18T08:04:00;99627.00;;;-11.30
35582;BMP180;21687;48.900;9.188;2022-12-18T08:06:27;99629.00;;;-11.30
35582;BMP180;21687;48.900;9.188;2022-12-18T08:08:54;99623.00;;;-11.40
35582;BMP180;21687;48.900;9.188;2022-12-18T08:11:22;99625.00;;;-11.50
35582;BMP180;21687;48.900;9.188;2022-12-18T08:13:51;99632.00;;;-11.30
35582;BMP180;21687;48.900;9.188;2022-12-18T08:16:18;99630.00;;;-11.30
35582;BMP180;21687;48.900;9.188;2022-12-18T08:18:44;99627.00;;;-11.30
35582;BMP180;21687;48.900;9.188;2022-12-18T08:21:17;99627.00;;;-11.20
35582;BMP180;21687;48.900;9.188;2022-12-18T08:23:45;99644.00;;;-11.20
35582;BMP180;21687;48.900;9.188;2022-12-18T08:26:12;99641.00;;;-11.10
35582;BMP180;21687;48.900;9.188;2022-12-18T08:28:39;99652.00;;;-11.00
35582;BMP180;21687;48.900;9.188;2022-12-18T08:31:06;99633.00;;;-11.00
35582;BMP180;21687;48.900;9.188;2022-12-18T08:33:33;99636.00;;;-10.90
35582;BMP180;21687;48.900;9.188;2022-12-18T08:36:01;99645.00;;;-10.80
35582;BMP180;21687;48.900;9.188;2022-12-18T08:38:28;99635.00;;;-10.70
35582;BMP180;21687;48.900;9.188;2022-12-18T08:41:11;99639.00;;;-10.60
35582;BMP180;21687;48.900;9.188;2022-12-18T08:43:38;99641.00;;;-10.60
35582;BMP180;21687;48.900;9.188;2022-12-18T08:46:26;99628.00;;;-10.40
35582;BMP180;21687;48.900;9.188;2022-12-18T08:48:53;99633.00;;;-10.40
35582;BMP180;21687;48.900;9.188;2022-12-18T08:51:21;99636.00;;;-10.30
35582;BMP180;21687;48.900;9.188;2022-12-18T08:53:48;99632.00;;;-10.20
35582;BMP180;21687;48.900;9.188;2022-12-18T08:56:15;99639.00;;;-10.20
35582;BMP180;21687;48.900;9.188;2022-12-18T08:58:42;99625.00;;;-10.00
35582;BMP180;21687;48.900;9.188;2022-12-18T09:01:11;99626.00;;;-10.00
35582;BMP180;21687;48.900;9.188;2022-12-18T09:03:38;99621.00;;;-9.90
35582;BMP180;21687;48.900;9.188;2022-12-18T09:06:05;99617.00;;;-10.00
35582;BMP180;21687;48.900;9.188;2022-12-18T09:08:32;99608.00;;;-9.90
35582;BMP180;21687;48.900;9.188;2022-12-18T09:10:58;99601.00;;;-9.80
35582;BMP180;21687;48.900;9.188;2022-12-18T09:13:25;99613.00;;;-9.60
35582;BMP180;21687;48.900;9.188;2022-12-18T09:15:54;99613.00;;;-9.50
35582;BMP180;21687;48.900;9.188;2022-12-18T09:18:22;99610.00;;;-9.40
35582;BMP180;21687;48.900;9.188;2022-12-18T09:20:50;99613.00;;;-9.30
35582;BMP180;21687;48.900;9.188;2022-12-18T09:23:18;99606.00;;;-9.20
35582;BMP180;21687;48.900;9.188;2022-12-18T09:25:44;99611.00;;;-9.10
35582;BMP180;21687;48.900;9.188;2022-12-18T09:28:15;99598.00;;;-8.90
35582;BMP180;21687;48.900;9.188;2022-12-18T09:30:44;99598.00;;;-8.80
35582;BMP180;21687;48.900;9.188;2022-12-18T09:33:10;99579.00;;;-8.60
35582;BMP180;21687;48.900;9.188;2022-12-18T09:35:37;99594.00;;;-8.60
35582;BMP180;21687;48.900;9.188;2022-12-18T09:38:04;99593.00;;;-8.40
35582;BMP180;21687;48.900;9.188;2022-12-18T09:40:44;99599.00;;;-8.40
35582;BMP180;21687;48.900;9.188;2022-12-18T09:43:20;99591.00;;;-8.30
35582;BMP180;21687;48.900;9.188;2022-12-18T09:46:03;99603.00;;;-8.10
35582;BMP180;21687;48.900;9.188;2022-12-18T09:48:40;99587.00;;;-8.10
35582;BMP180;21687;48.900;9.188;2022-12-18T09:51:18;99586.00;;;-8.00
35582;BMP180;21687;48.900;9.188;2022-12-18T09:53:50;99579.00;;;-7.80
35582;BMP180;21687;48.900;9.188;2022-12-18T09:56:19;99581.00;;;-7.70
35582;BMP180;21687;48.900;9.188;2022-12-18T09:58:58;99577.00;;;-7.50
35582;BMP180;21687;48.900;9.188;2022-12-18T10:01:26;99586.00;;;-7.40
35582;BMP180;21687;48.900;9.188;2022-12-18T10:03:54;99593.00;;;-7.30
35582;BMP180;21687;48.900;9.188;2022-12-18T10:14:55;99583.00;;;-6.90
35582;BMP180;21687;48.900;9.188;2022-12-18T10:17:35;99594.00;;;-6.80
35582;BMP180;21687;48.900;9.188;2022-12-18T10:26:04;99609.00;;;-6.50
35582;BMP180;21687;48.900;9.188;2022-12-18T10:28:32;99608.00;;;-6.40
35582;BMP180;21687;48.900;9.188;2022-12-18T10:30:59;99612.00;;;-6.30
35582;BMP180;21687;48.900;9.188;2022-12-18T10:33:29;99608.00;;;-6.20
35582;BMP180;21687;48.900;9.188;2022-12-18T10:35:57;99602.00;;;-6.30
35582;BMP180;21687;48.900;9.188;2022-12-18T10:38:29;99601.00;;;-6.20
35582;BMP180;21687;48.900;9.188;2022-12-18T10:43:35;99606.00;;;-6.10
35582;BMP180;21687;48.900;9.188;2022-12-18T10:48:54;99608.00;;;-5.90
35582;BMP180;21687;48.900;9.188;2022-12-18T10:51:31;99614.00;;;-5.80
35582;BMP180;21687;48.900;9.188;2022-12-18T10:54:20;99595.00;;;-5.80
35582;BMP180;21687;48.900;9.188;2022-12-18T10:56:47;99592.00;;;-5.80
35582;BMP180;21687;48.900;9.188;2022-12-18T10:59:16;99596.00;;;-5.70
35582;BMP180;21687;48.900;9.188;2022-12-18T11:01:55;99612.00;;;-5.70
35582;BMP180;21687;48.900;9.188;2022-12-18T11:04:23;99607.00;;;-5.60
35582;BMP180;21687;48.900;9.188;2022-12-18T11:07:01;99612.00;;;-5.40
35582;BMP180;21687;48.900;9.188;2022-12-18T11:09:29;99606.00;;;-5.30
35582;BMP180;21687;48.900;9.188;2022-12-18T11:12:00;99606.00;;;-5.20
35582;BMP180;21687;48.900;9.188;2022-12-18T11:14:28;99597.00;;;-5.10
35582;BMP180;21687;48.900;9.188;2022-12-18T11:16:56;99595.00;;;-5.00
35582;BMP180;21687;48.900;9.188;2022-12-18T11:19:27;99582.00;;;-4.90
35582;BMP180;21687;48.900;9.188;2022-12-18T11:21:54;99589.00;;;-4.90
35582;BMP180;21687;48.900;9.188;2022-12-18T11:24:33;99564.00;;;-4.80
35582;BMP180;21687;48.900;9.188;2022-12-18T11:27:05;99556.00;;;-4.70
35582;BMP180;21687;48.900;9.188;2022-12-18T11:29:37;99556.00;;;-4.80
35582;BMP180;21687;48.900;9.188;2022-12-18T11:32:32;99564.00;;;-4.70
35582;BMP180;21687;48.900;9.188;2022-12-18T11:35:04;99561.00;;;-4.60
35582;BMP180;21687;48.900;9.188;2022-12-18T11:37:37;99571.00;;;-4.50
35582;BMP180;21687;48.900;9.188;2022-12-18T11:40:33;99565.00;;;-4.60
35582;BMP180;21687;48.900;9.188;2022-12-18T11:43:09;99555.00;;;-4.50
35582;BMP180;21687;48.900;9.188;2022-12-18T11:45:52;99561.00;;;-4.40
35582;BMP180;21687;48.900;9.188;2022-12-18T11:49:21;99549.00;;;-4.40
35582;BMP180;21687;48.900;9.188;2022-12-18T11:51:37;99548.00;;;-4.20
35582;BMP180;21687;48.900;9.188;2022-12-18T11:54:13;99557.00;;;-4.10
35582;BMP180;21687;48.900;9.188;2022-12-18T11:57:07;99550.00;;;-4.20
35582;BMP180;21687;48.900;9.188;2022-12-18T12:13:44;99534.00;;;-4.20
35582;BMP180;21687;48.900;9.188;2022-12-18T12:16:28;99527.00;;;-4.20
35582;BMP180;21687;48.900;9.188;2022-12-18T12:19:06;99525.00;;;-4.10
35582;BMP180;21687;48.900;9.188;2022-12-18T12:21:51;99512.00;;;-4.00
35582;BMP180;21687;48.900;9.188;2022-12-18T12:24:44;99508.00;;;-3.90
35582;BMP180;21687;48.900;9.188;2022-12-18T12:38:14;99519.00;;;-3.40
35582;BMP180;21687;48.900;9.188;2022-12-18T12:40:49;99514.00;;;-3.40
35582;BMP180;21687;48.900;9.188;2022-12-18T12:46:06;99527.00;;;-3.50
35582;BMP180;21687;48.900;9.188;2022-12-18T12:49:09;99535.00;;;-3.30
35582;BMP180;21687;48.900;9.188;2022-12-18T12:51:29;99529.00;;;-3.20
35582;BMP180;21687;48.900;9.188;2022-12-18T12:53:59;99536.00;;;-3.20
35582;BMP180;21687;48.900;9.188;2022-12-18T12:59:22;99544.00;;;-3.20
35582;BMP180;21687;48.900;9.188;2022-12-18T13:02:06;99525.00;;;-3.10
35582;BMP180;21687;48.900;9.188;2022-12-18T13:04:47;99532.00;;;-3.00
35582;BMP180;21687;48.900;9.188;2022-12-18T13:07:37;99540.00;;;-2.80
35582;BMP180;21687;48.900;9.188;2022-12-18T13:13:11;99547.00;;;-3.00
35582;BMP180;21687;48.900;9.188;2022-12-18T13:15:50;99533.00;;;-3.00
35582;BMP180;21687;48.900;9.188;2022-12-18T13:18:29;99539.00;;;-2.90
35582;BMP180;21687;48.900;9.188;2022-12-18T13:31:10;99524.00;;;-2.80
35582;BMP180;21687;48.900;9.188;2022-12-18T13:33:37;99531.00;;;-2.60
35582;BMP180;21687;48.900;9.188;2022-12-18T13:36:31;99520.00;;;-2.80
35582;BMP180;21687;48.900;9.188;2022-12-18T13:41:49;99518.00;;;-2.70
35582;BMP180;21687;48.900;9.188;2022-12-18T13:44:37;99509.00;;;-2.70
35582;BMP180;21687;48.900;9.188;2022-12-18T13:47:32;99509.00;;;-2.70
35582;BMP180;21687;48.900;9.188;2022-12-18T13:49:59;99508.00;;;-2.70
35582;BMP180;21687;48.900;9.188;2022-12-18T13:52:28;99515.00;;;-2.70
35582;BMP180;21687;48.900;9.188;2022-12-18T13:55:00;99510.00;;;-2.80
35582;BMP180;21687;48.900;9.188;2022-12-18T13:57:32;99511.00;;;-2.80
35582;BMP180;21687;48.900;9.188;2022-12-18T14:02:49;99488.00;;;-3.00
35582;BMP180;21687;48.900;9.188;2022-12-18T14:05:27;99505.00;;;-3.10
35582;BMP180;21687;48.900;9.188;2022-12-18T14:07:54;99509.00;;;-3.20
35582;BMP180;21687;48.900;9.188;2022-12-18T14:10:21;99506.00;;;-3.10
35582;BMP180;21687;48.900;9.188;2022-12-18T14:12:49;99511.00;;;-3.30
35582;BMP180;21687;48.900;9.188;2022-12-18T14:15:40;99527.00;;;-3.20
35582;BMP180;21687;48.900;9.188;2022-12-18T14:18:38;99519.00;;;-3.30
35582;BMP180;21687;48.900;9.188;2022-12-18T14:21:13;99511.00;;;-3.30
35582;BMP180;21687;48.900;9.188;2022-12-18T14:23:43;99510.00;;;-3.30
35582;BMP180;21687;48.900;9.188;2022-12-18T14:26:29;99514.00;;;-3.40
35582;BMP180;21687;48.900;9.188;2022-12-18T14:28:57;99517.00;;;-3.40
35582;BMP180;21687;48.900;9.188;2022-12-18T14:31:27;99514.00;;;-3.50
35582;BMP180;21687;48.900;9.188;2022-12-18T14:33:54;99530.00;;;-3.50
35582;BMP180;21687;48.900;9.188;2022-12-18T14:36:24;99515.00;;;-3.60
35582;BMP180;21687;48.900;9.188;2022-12-18T14:38:55;99513.00;;;-3.70
35582;BMP180;21687;48.900;9.188;2022-12-18T14:41:22;99513.00;;;-3.70
35582;BMP180;21687;48.900;9.188;2022-12-18T14:43:51;99513.00;;;-3.70
35582;BMP180;21687;48.900;9.188;2022-12-18T14:46:35;99522.00;;;-3.80
35582;BMP180;21687;48.900;9.188;2022-12-18T14:49:05;99514.00;;;-3.80
35582;BMP180;21687;48.900;9.188;2022-12-18T14:51:49;99518.00;;;-3.80
35582;BMP180;21687;48.900;9.188;2022-12-18T14:54:18;99520.00;;;-3.80
35582;BMP180;21687;48.900;9.188;2022-12-18T14:56:47;99520.00;;;-3.90
35582;BMP180;21687;48.900;9.188;2022-12-18T15:01:56;99515.00;;;-4.00
35582;BMP180;21687;48.900;9.188;2022-12-18T15:09:37;99521.00;;;-4.10
35582;BMP180;21687;48.900;9.188;2022-12-18T15:12:05;99513.00;;;-4.10
35582;BMP180;21687;48.900;9.188;2022-12-18T15:14:34;99502.00;;;-4.10
35582;BMP180;21687;48.900;9.188;2022-12-18T15:17:02;99503.00;;;-4.20
35582;BMP180;21687;48.900;9.188;2022-12-18T15:19:37;99511.00;;;-4.10
35582;BMP180;21687;48.900;9.188;2022-12-18T15:22:12;99503.00;;;-4.20
35582;BMP180;21687;48.900;9.188;2022-12-18T15:24:42;99504.00;;;-4.20
35582;BMP180;21687;48.900;9.188;2022-12-18T15:30:01;99500.00;;;-4.30
35582;BMP180;21687;48.900;9.188;2022-12-18T15:32:27;99492.00;;;-4.20
35582;BMP180;21687;48.900;9.188;2022-12-18T15:35:24;99504.00;;;-4.20
35582;BMP180;21687;48.900;9.188;2022-12-18T15:37:51;99500.00;;;-4.30
35582;BMP180;21687;48.900;9.188;2022-12-18T15:40:23;99501.00;;;-4.30
35582;BMP180;21687;48.900;9.188;2022-12-18T15:42:53;99509.00;;;-4.30
35582;BMP180;21687;48.900;9.188;2022-12-18T15:45:38;99504.00;;;-4.30
35582;BMP180;21687;48.900;9.188;2022-12-18T15:48:19;99505.00;;;-4.40
35582;BMP180;21687;48.900;9.188;2022-12-18T15:50:46;99499.00;;;-4.50
35582;BMP180;21687;48.900;9.188;2022-12-18T15:53:12;99506.00;;;-4.70
35582;BMP180;21687;48.900;9.188;2022-12-18T15:55:38;99499.00;;;-4.40
35582;BMP180;21687;48.900;9.188;2022-12-18T15:58:23;99512.00;;;-4.50
35582;BMP180;21687;48.900;9.188;2022-12-18T16:00:50;99517.00;;;-4.70
35582;BMP180;21687;48.900;9.188;2022-12-18T16:03:16;99527.00;;;-4.70